createdAt,value
2022-10-10T00:01:16.249Z,2.00
2022-10-10T00:03:44.803Z,2.40
2022-10-10T00:06:13.569Z,2.10
2022-10-10T00:08:41.677Z,2.20
2022-10-10T00:11:09.925Z,2.30
2022-10-10T00:13:38.145Z,2.20
2022-10-10T00:16:06.489Z,2.10
2022-10-10T00:18:37.045Z,1.93
2022-10-10T00:21:05.207Z,2.17
2022-10-10T00:23:33.035Z,2.00
2022-10-10T00:26:04.457Z,2.10
2022-10-10T00:28:38.210Z,2.17
2022-10-10T00:31:06.641Z,2.13
2022-10-10T00:33:36.066Z,1.80
2022-10-10T00:36:04.621Z,2.10
2022-10-10T00:38:32.566Z,2.13
2022-10-10T00:41:00.634Z,2.00
2022-10-10T00:43:29.345Z,2.00
2022-10-10T00:45:57.203Z,1.97
2022-10-10T00:48:29.034Z,2.33
2022-10-10T00:51:01.840Z,2.30
2022-10-10T00:53:33.041Z,2.13
2022-10-10T00:56:01.966Z,2.17
2022-10-10T00:58:29.919Z,2.13
2022-10-10T01:00:58.046Z,2.10
2022-10-10T01:03:25.902Z,2.10
2022-10-10T01:05:54.194Z,2.20
2022-10-10T01:08:23.790Z,2.20
2022-10-10T01:11:06.306Z,2.10
2022-10-10T01:13:40.515Z,2.20
2022-10-10T01:16:15.602Z,2.50
2022-10-10T01:18:48.142Z,1.90
2022-10-10T01:21:24.205Z,2.43
2022-10-10T01:24:46.638Z,2.20
2022-10-10T01:27:28.900Z,2.20
2022-10-10T01:30:05.838Z,2.17
2022-10-10T01:32:39.178Z,2.10
2022-10-10T01:35:22.369Z,2.43
2022-10-10T01:37:56.665Z,1.93
2022-10-10T01:40:31.391Z,2.30
2022-10-10T01:43:03.267Z,2.40
2022-10-10T01:45:32.654Z,2.33
2022-10-10T01:48:04.877Z,2.40
2022-10-10T01:50:35.681Z,2.40
2022-10-10T01:53:11.516Z,2.30
2022-10-10T01:55:49.897Z,2.33
2022-10-10T01:58:37.033Z,2.47
2022-10-10T02:01:11.939Z,2.10
2022-10-10T02:03:45.763Z,2.43
2022-10-10T02:06:21.396Z,2.23
2022-10-10T02:08:52.706Z,2.57
2022-10-10T02:11:20.942Z,2.67
2022-10-10T02:13:52.206Z,2.60
2022-10-10T02:16:26.762Z,2.30
2022-10-10T02:18:57.667Z,2.23
2022-10-10T02:21:27.061Z,2.40
2022-10-10T02:23:58.963Z,2.10
2022-10-10T02:26:29.269Z,2.70
2022-10-10T02:29:00.584Z,2.57
2022-10-10T02:31:34.181Z,2.60
2022-10-10T02:34:08.804Z,2.27
2022-10-10T02:36:37.507Z,2.70
2022-10-10T02:39:05.996Z,2.50
2022-10-10T02:41:36.331Z,2.40
2022-10-10T02:44:04.629Z,2.80
2022-10-10T02:46:33.772Z,2.60
2022-10-10T02:49:03.038Z,2.47
2022-10-10T02:51:30.946Z,2.47
2022-10-10T02:53:58.798Z,2.40
2022-10-10T02:56:26.722Z,2.60
2022-10-10T02:58:54.732Z,2.60
2022-10-10T03:01:22.659Z,2.80
2022-10-10T03:03:51.959Z,2.20
2022-10-10T03:06:19.819Z,2.47
2022-10-10T03:08:47.634Z,2.47
2022-10-10T03:11:15.485Z,2.57
2022-10-10T03:13:43.530Z,2.90
2022-10-10T03:16:11.301Z,2.13
2022-10-10T03:18:39.155Z,3.03
2022-10-10T03:21:08.751Z,2.53
2022-10-10T03:23:36.677Z,2.33
2022-10-10T03:26:05.977Z,2.60
2022-10-10T03:28:33.963Z,2.60
2022-10-10T03:31:01.745Z,2.60
2022-10-10T03:33:29.532Z,2.50
2022-10-10T03:35:57.396Z,2.57
2022-10-10T03:38:26.598Z,2.63
2022-10-10T03:40:54.504Z,2.80
2022-10-10T03:43:22.476Z,2.80
2022-10-10T03:45:50.481Z,3.17
2022-10-10T03:48:18.546Z,2.70
2022-10-10T03:50:46.470Z,2.90
2022-10-10T03:53:14.278Z,2.60
2022-10-10T03:55:43.842Z,2.70
2022-10-10T03:58:12.367Z,2.57
2022-10-10T04:00:40.710Z,2.90
2022-10-10T04:03:09.206Z,2.97
2022-10-10T04:05:37.798Z,2.90
2022-10-10T04:08:06.701Z,2.80
2022-10-10T04:10:34.477Z,2.80
2022-10-10T04:13:03.774Z,2.70
2022-10-10T04:15:32.475Z,3.00
2022-10-10T04:18:00.306Z,2.70
2022-10-10T04:20:28.190Z,2.70
2022-10-10T04:22:56.069Z,3.17
2022-10-10T04:25:23.924Z,2.87
2022-10-10T04:27:51.798Z,3.00
2022-10-10T04:30:21.456Z,3.07
2022-10-10T04:32:49.634Z,3.23
2022-10-10T04:35:17.785Z,2.77
2022-10-10T04:37:46.626Z,2.80
2022-10-10T04:40:14.393Z,3.00
2022-10-10T04:42:42.218Z,3.13
2022-10-10T04:45:10.868Z,3.10
2022-10-10T04:47:40.015Z,3.03
2022-10-10T04:50:08.652Z,3.20
2022-10-10T04:52:36.523Z,3.00
2022-10-10T04:55:04.596Z,3.20
2022-10-10T04:57:32.424Z,3.40
2022-10-10T05:00:00.324Z,2.97
2022-10-10T05:02:28.218Z,3.00
2022-10-10T05:04:57.435Z,3.20
2022-10-10T05:07:25.872Z,3.07
2022-10-10T05:09:53.632Z,3.43
2022-10-10T05:12:21.444Z,3.07
2022-10-10T05:14:49.196Z,3.10
2022-10-10T05:17:17.032Z,3.13
2022-10-10T05:19:44.920Z,3.23
2022-10-10T05:22:14.078Z,3.50
2022-10-10T05:24:41.926Z,3.40
2022-10-10T05:27:09.848Z,3.17
2022-10-10T05:29:37.872Z,3.50
2022-10-10T05:32:10.079Z,3.50
2022-10-10T05:34:38.742Z,3.40
2022-10-10T05:37:06.534Z,3.63
2022-10-10T05:39:36.102Z,3.37
2022-10-10T05:42:04.871Z,3.07
2022-10-10T05:44:33.689Z,3.60
2022-10-10T05:47:01.673Z,3.47
2022-10-10T05:49:29.587Z,3.57
2022-10-10T05:51:57.428Z,3.73
2022-10-10T05:54:25.218Z,3.47
2022-10-10T05:56:54.364Z,3.53
2022-10-10T05:59:22.245Z,3.23
2022-10-10T06:01:50.326Z,3.20
2022-10-10T06:04:18.358Z,3.70
2022-10-10T06:06:46.173Z,3.60
2022-10-10T06:09:14.071Z,3.57
2022-10-10T06:11:41.930Z,3.73
2022-10-10T06:14:11.395Z,3.97
2022-10-10T06:16:39.585Z,3.70
2022-10-10T06:19:11.351Z,3.60
2022-10-10T06:21:41.821Z,3.30
2022-10-10T06:24:10.647Z,3.50
2022-10-10T06:26:38.476Z,3.40
2022-10-10T06:29:07.276Z,3.80
2022-10-10T06:31:39.340Z,3.70
2022-10-10T06:34:07.677Z,3.47
2022-10-10T06:36:36.092Z,3.70
2022-10-10T06:39:04.459Z,3.60
2022-10-10T06:41:32.254Z,3.97
2022-10-10T06:44:00.109Z,3.50
2022-10-10T06:46:28.079Z,3.93
2022-10-10T06:48:57.251Z,4.20
2022-10-10T06:51:25.909Z,3.90
2022-10-10T06:53:53.940Z,4.03
2022-10-10T06:56:26.519Z,3.90
2022-10-10T06:58:55.800Z,3.73
2022-10-10T07:01:25.732Z,3.90
2022-10-10T07:03:54.055Z,3.67
2022-10-10T07:06:23.626Z,4.10
2022-10-10T07:08:51.472Z,4.03
2022-10-10T07:11:19.350Z,4.30
2022-10-10T07:13:47.224Z,3.60
2022-10-10T07:16:14.994Z,3.80
2022-10-10T07:18:42.866Z,4.10
2022-10-10T07:21:10.843Z,3.83
2022-10-10T07:23:39.972Z,4.10
2022-10-10T07:26:10.734Z,3.97
2022-10-10T07:28:39.201Z,3.80
2022-10-10T07:31:09.702Z,3.73
2022-10-10T07:33:40.182Z,4.00
2022-10-10T07:36:08.943Z,4.00
2022-10-10T07:38:38.145Z,3.63
2022-10-10T07:41:08.342Z,3.67
2022-10-10T07:43:37.178Z,3.60
2022-10-10T07:46:08.207Z,3.53
2022-10-10T07:48:39.957Z,3.70
2022-10-10T07:51:08.402Z,3.77
2022-10-10T07:53:36.307Z,3.43
2022-10-10T07:56:07.761Z,3.47
2022-10-10T07:58:36.017Z,3.20
2022-10-10T08:01:05.087Z,3.53
2022-10-10T08:03:33.147Z,3.60
2022-10-10T08:06:04.011Z,3.43
2022-10-10T08:08:34.340Z,3.00
2022-10-10T08:11:05.051Z,3.27
2022-10-10T08:13:34.770Z,2.80
2022-10-10T08:16:03.198Z,3.20
2022-10-10T08:18:31.170Z,3.17
2022-10-10T08:21:03.594Z,3.50
2022-10-10T08:23:31.423Z,3.10
2022-10-10T08:25:59.834Z,3.40
2022-10-10T08:28:28.012Z,2.83
2022-10-10T08:30:57.482Z,3.33
2022-10-10T08:33:27.964Z,2.70
2022-10-10T08:35:56.488Z,3.00
2022-10-10T08:38:24.241Z,3.10
2022-10-10T08:40:55.942Z,2.70
2022-10-10T08:43:32.071Z,3.10
2022-10-10T08:46:10.392Z,3.10
2022-10-10T08:48:40.092Z,2.77
2022-10-10T08:51:14.091Z,3.13
2022-10-10T08:53:45.218Z,2.93
2022-10-10T08:56:17.567Z,2.93
2022-10-10T08:58:49.139Z,2.70
2022-10-10T09:01:25.041Z,2.70
2022-10-10T09:03:58.077Z,2.67
2022-10-10T09:06:35.748Z,2.93
2022-10-10T09:09:11.979Z,2.70
2022-10-10T09:11:52.815Z,3.10
2022-10-10T09:14:34.237Z,2.70
2022-10-10T09:17:13.763Z,2.60
2022-10-10T09:19:54.715Z,2.60
2022-10-10T09:22:27.501Z,2.40
2022-10-10T09:25:00.028Z,2.60
2022-10-10T09:27:33.019Z,2.90
2022-10-10T09:30:05.198Z,3.00
2022-10-10T09:32:38.581Z,3.07
2022-10-10T09:35:16.205Z,2.97
2022-10-10T09:37:47.833Z,2.73
2022-10-10T09:40:23.356Z,2.73
2022-10-10T09:42:51.545Z,2.50
2022-10-10T09:45:21.882Z,2.63
2022-10-10T09:47:54.252Z,3.03
2022-10-10T09:50:23.399Z,2.50
2022-10-10T09:52:52.681Z,2.60
2022-10-10T09:55:26.358Z,2.63
2022-10-10T09:57:56.098Z,2.60
2022-10-10T10:00:35.553Z,2.60
2022-10-10T10:03:16.561Z,2.97
2022-10-10T10:05:47.112Z,2.67
2022-10-10T10:08:25.950Z,2.80
2022-10-10T10:10:58.074Z,2.77
2022-10-10T10:13:30.372Z,2.70
2022-10-10T10:16:03.089Z,2.60
2022-10-10T10:18:38.785Z,2.93
2022-10-10T10:21:17.172Z,2.70
2022-10-10T10:23:51.785Z,2.70
2022-10-10T10:26:22.640Z,2.60
2022-10-10T10:28:52.330Z,2.83
2022-10-10T10:31:44.792Z,2.93
2022-10-10T10:34:32.131Z,2.50
2022-10-10T10:37:14.845Z,2.70
2022-10-10T10:39:51.266Z,2.63
2022-10-10T10:42:31.910Z,2.53
2022-10-10T10:45:07.831Z,2.50
2022-10-10T10:47:44.264Z,2.80
2022-10-10T10:50:31.231Z,2.70
2022-10-10T10:53:05.258Z,2.60
2022-10-10T10:55:40.344Z,2.60
2022-10-10T11:01:51.840Z,2.90
2022-10-10T11:05:18.961Z,3.10
2022-10-10T11:07:21.628Z,2.70
2022-10-10T11:09:56.363Z,2.80
2022-10-10T11:12:48.149Z,2.70
2022-10-10T11:15:20.318Z,2.83
2022-10-10T11:17:54.026Z,2.40
2022-10-10T11:20:26.794Z,2.80
2022-10-10T11:23:04.203Z,2.87
2022-10-10T11:25:42.502Z,2.40
2022-10-10T11:28:15.463Z,3.10
2022-10-10T11:30:49.150Z,2.60
2022-10-10T11:33:20.729Z,3.07
2022-10-10T11:35:53.897Z,2.97
2022-10-10T11:38:26.892Z,2.70
2022-10-10T11:40:59.135Z,2.60
2022-10-10T11:43:36.477Z,2.70
2022-10-10T11:46:12.396Z,2.80
2022-10-10T11:48:48.146Z,2.93
2022-10-10T11:51:25.698Z,2.90
2022-10-10T11:54:00.773Z,2.60
2022-10-10T11:56:33.042Z,2.43
2022-10-10T11:59:06.033Z,2.67
2022-10-10T12:01:38.589Z,2.70
2022-10-10T12:04:06.430Z,2.80
2022-10-10T12:06:38.758Z,2.80
2022-10-10T12:09:14.766Z,2.60
2022-10-10T12:11:47.636Z,2.80
2022-10-10T12:14:18.669Z,2.93
2022-10-10T12:16:47.284Z,2.50
2022-10-10T12:19:20.411Z,2.40
2022-10-10T12:22:00.352Z,2.80
2022-10-10T12:24:31.633Z,2.50
2022-10-10T12:27:27.754Z,2.40
2022-10-10T12:30:28.972Z,2.60
2022-10-10T12:32:57.594Z,2.47
2022-10-10T12:35:40.153Z,2.70
2022-10-10T12:38:17.616Z,2.50
2022-10-10T12:41:12.284Z,2.70
2022-10-10T12:43:43.328Z,2.40
2022-10-10T12:46:34.477Z,2.63
2022-10-10T12:49:20.669Z,2.43
2022-10-10T12:52:01.451Z,2.50
2022-10-10T12:54:33.574Z,2.40
2022-10-10T12:57:10.116Z,2.50
2022-10-10T12:59:39.095Z,2.40
2022-10-10T13:02:13.770Z,2.93
2022-10-10T13:04:44.329Z,2.83
2022-10-10T13:07:17.441Z,2.50
2022-10-10T13:09:48.079Z,2.73
2022-10-10T13:12:29.723Z,2.70
2022-10-10T13:14:58.167Z,2.57
2022-10-10T13:17:28.740Z,2.60
2022-10-10T13:19:58.218Z,2.57
2022-10-10T13:22:27.041Z,2.80
2022-10-10T13:24:55.115Z,3.20
2022-10-10T13:27:26.244Z,2.40
2022-10-10T13:29:56.200Z,2.70
2022-10-10T13:32:27.363Z,2.87
2022-10-10T13:34:58.120Z,3.40
2022-10-10T13:37:26.912Z,2.90
2022-10-10T13:39:55.449Z,3.20
2022-10-10T13:42:31.853Z,3.47
2022-10-10T13:45:02.971Z,2.80
2022-10-10T13:47:49.663Z,2.87
2022-10-10T13:50:24.247Z,2.77
2022-10-10T13:53:14.877Z,2.90
2022-10-10T13:55:42.833Z,2.90
2022-10-10T13:58:11.366Z,2.80
2022-10-10T14:00:40.550Z,3.20
2022-10-10T14:03:15.628Z,3.10
2022-10-10T14:05:46.174Z,3.07
2022-10-10T14:08:18.086Z,2.70
2022-10-10T14:10:57.502Z,3.07
2022-10-10T14:13:25.550Z,2.67
2022-10-10T14:15:55.366Z,2.90
2022-10-10T14:18:25.071Z,2.80
2022-10-10T14:20:55.402Z,2.90
2022-10-10T14:23:23.621Z,2.90
2022-10-10T14:25:51.843Z,3.03
2022-10-10T14:28:24.403Z,2.63
2022-10-10T14:30:53.597Z,2.60
2022-10-10T14:33:21.563Z,2.93
2022-10-10T14:35:51.589Z,2.80
2022-10-10T14:38:19.563Z,2.60
2022-10-10T14:40:50.041Z,3.17
2022-10-10T14:43:20.408Z,3.30
2022-10-10T14:45:51.135Z,3.00
2022-10-10T14:48:20.954Z,3.20
2022-10-10T14:50:51.056Z,3.40
2022-10-10T14:53:19.458Z,3.13
2022-10-10T14:55:47.639Z,3.27
2022-10-10T14:58:17.117Z,3.10
2022-10-10T15:00:45.452Z,3.00
2022-10-10T15:03:13.514Z,3.00
2022-10-10T15:05:42.923Z,3.33
2022-10-10T15:08:14.253Z,3.20
2022-10-10T15:10:42.081Z,3.10
2022-10-10T15:13:11.558Z,3.50
2022-10-10T15:15:39.500Z,2.90
2022-10-10T15:18:20.101Z,3.20
2022-10-10T15:20:56.138Z,3.30
2022-10-10T15:23:23.901Z,3.30
2022-10-10T15:25:51.727Z,2.67
2022-10-10T15:28:19.802Z,2.97
2022-10-10T15:30:47.949Z,2.97
2022-10-10T15:33:15.723Z,3.00
2022-10-10T15:36:08.073Z,3.20
2022-10-10T15:38:35.279Z,3.37
2022-10-10T15:41:06.343Z,3.10
2022-10-10T15:43:43.831Z,3.23
2022-10-10T15:46:11.987Z,3.40
2022-10-10T15:48:39.918Z,3.17
2022-10-10T15:51:09.151Z,2.97
2022-10-10T15:53:38.380Z,3.00
2022-10-10T15:56:10.331Z,3.20
2022-10-10T15:58:39.593Z,2.97
2022-10-10T16:01:12.602Z,3.10
2022-10-10T16:03:40.578Z,2.97
2022-10-10T16:06:09.060Z,3.23
2022-10-10T16:08:38.925Z,3.30
2022-10-10T16:11:08.233Z,2.80
2022-10-10T16:13:36.502Z,3.30
2022-10-10T16:16:07.111Z,2.93
2022-10-10T16:18:40.188Z,3.07
2022-10-10T16:21:09.505Z,3.13
2022-10-10T16:23:39.269Z,3.43
2022-10-10T16:26:09.124Z,3.23
2022-10-10T16:28:37.139Z,3.03
2022-10-10T16:31:06.362Z,3.43
2022-10-10T16:33:34.756Z,3.43
2022-10-10T16:36:02.766Z,3.40
2022-10-10T16:38:30.649Z,3.70
2022-10-10T16:41:02.998Z,4.43
2022-10-10T16:43:31.337Z,4.20
2022-10-10T16:46:02.826Z,4.50
2022-10-10T16:48:31.482Z,4.53
2022-10-10T16:51:03.348Z,4.50
2022-10-10T16:53:31.856Z,4.37
2022-10-10T16:56:01.787Z,5.00
2022-10-10T16:58:30.683Z,4.77
2022-10-10T17:01:03.629Z,4.83
2022-10-10T17:03:33.676Z,4.87
2022-10-10T17:06:02.641Z,4.53
2022-10-10T17:08:31.598Z,4.90
2022-10-10T17:11:01.303Z,4.87
2022-10-10T17:13:31.153Z,5.10
2022-10-10T17:16:21.833Z,4.80
2022-10-10T17:18:47.207Z,5.30
2022-10-10T17:21:17.143Z,5.27
2022-10-10T17:23:45.464Z,5.53
2022-10-10T17:26:16.906Z,5.90
2022-10-10T17:28:45.205Z,6.50
2022-10-10T17:31:15.861Z,5.70
2022-10-10T17:33:47.691Z,6.40
2022-10-10T17:36:21.404Z,6.80
2022-10-10T17:38:49.967Z,6.77
2022-10-10T17:41:20.352Z,7.50
2022-10-10T17:43:48.454Z,7.63
2022-10-10T17:46:35.952Z,8.40
2022-10-10T17:49:05.965Z,8.17
2022-10-10T17:51:34.666Z,8.20
2022-10-10T17:54:02.904Z,8.03
2022-10-10T17:56:32.473Z,5.00
2022-10-10T17:59:01.496Z,4.17
2022-10-10T18:01:30.399Z,3.53
2022-10-10T18:03:58.619Z,2.60
2022-10-10T18:06:26.736Z,2.30
2022-10-10T18:08:55.606Z,2.00
2022-10-10T18:11:24.900Z,2.03
2022-10-10T18:13:59.973Z,1.90
2022-10-10T18:16:30.406Z,1.57
2022-10-10T18:18:59.367Z,1.63
2022-10-10T18:21:27.587Z,2.00
2022-10-10T18:23:55.889Z,2.53
2022-10-10T18:26:26.019Z,2.07
2022-10-10T18:28:56.320Z,1.87
2022-10-10T18:31:26.561Z,1.87
2022-10-10T18:33:54.724Z,1.70
2022-10-10T18:36:25.384Z,1.33
2022-10-10T18:38:53.239Z,1.40
2022-10-10T18:41:22.582Z,1.60
2022-10-10T18:43:51.586Z,1.50
2022-10-10T18:46:22.573Z,1.70
2022-10-10T18:48:54.023Z,1.60
2022-10-10T18:51:25.952Z,1.50
2022-10-10T18:53:57.908Z,1.33
2022-10-10T18:56:25.726Z,1.50
2022-10-10T18:58:56.360Z,1.63
2022-10-10T19:01:26.850Z,1.60
2022-10-10T19:03:55.845Z,1.37
2022-10-10T19:06:25.127Z,1.30
2022-10-10T19:08:55.611Z,1.50
2022-10-10T19:11:25.131Z,1.73
2022-10-10T19:13:53.250Z,2.20
2022-10-10T19:16:21.389Z,2.23
2022-10-10T19:18:50.629Z,2.07
2022-10-10T19:21:18.478Z,1.80
2022-10-10T19:23:46.548Z,1.90
2022-10-10T19:26:16.838Z,2.17
2022-10-10T19:28:45.141Z,1.87
2022-10-10T19:31:14.421Z,1.80
2022-10-10T19:33:43.069Z,1.53
2022-10-10T19:36:13.346Z,1.70
2022-10-10T19:38:42.737Z,1.77
2022-10-10T19:41:12.692Z,1.77
2022-10-10T19:43:40.851Z,2.03
2022-10-10T19:46:11.738Z,1.63
2022-10-10T19:48:39.543Z,1.97
2022-10-10T19:51:09.787Z,2.20
2022-10-10T19:53:39.866Z,2.00
2022-10-10T19:56:11.544Z,2.20
2022-10-10T19:58:39.586Z,1.90
2022-10-10T20:01:08.321Z,2.10
2022-10-10T20:03:36.318Z,2.07
2022-10-10T20:06:05.374Z,2.40
2022-10-10T20:08:33.792Z,2.60
2022-10-10T20:11:02.954Z,2.73
2022-10-10T20:13:31.719Z,2.40
2022-10-10T20:16:03.188Z,2.50
2022-10-10T20:18:33.133Z,2.10
2022-10-10T20:21:01.214Z,2.23
2022-10-10T20:23:29.005Z,2.27
2022-10-10T20:25:57.100Z,2.30
2022-10-10T20:28:26.265Z,2.60
2022-10-10T20:30:54.107Z,2.50
2022-10-10T20:33:22.217Z,2.27
2022-10-10T20:35:53.774Z,2.90
2022-10-10T20:38:23.925Z,2.90
2022-10-10T20:40:51.674Z,3.27
2022-10-10T20:43:19.524Z,2.80
2022-10-10T20:45:48.652Z,2.70
2022-10-10T20:48:16.490Z,3.03
2022-10-10T20:50:44.259Z,3.20
2022-10-10T20:53:13.198Z,3.07
2022-10-10T20:55:41.089Z,3.67
2022-10-10T20:58:08.906Z,3.90
2022-10-10T21:00:40.660Z,4.03
2022-10-10T21:03:09.944Z,4.13
2022-10-10T21:05:37.770Z,3.90
2022-10-10T21:08:05.904Z,3.73
2022-10-10T21:10:34.074Z,4.00
2022-10-10T21:13:02.058Z,3.83
2022-10-10T21:15:29.890Z,3.57
2022-10-10T21:17:58.131Z,4.13
2022-10-10T21:20:27.292Z,3.73
2022-10-10T21:22:55.629Z,4.00
2022-10-10T21:25:23.435Z,4.10
2022-10-10T21:27:51.238Z,3.87
2022-10-10T21:30:19.195Z,3.80
2022-10-10T21:32:47.013Z,4.30
2022-10-10T21:35:14.916Z,4.30
2022-10-10T21:37:45.463Z,3.97
2022-10-10T21:40:13.971Z,3.97
2022-10-10T21:42:41.754Z,4.00
2022-10-10T21:45:10.657Z,4.20
2022-10-10T21:47:38.441Z,3.73
2022-10-10T21:50:07.126Z,3.67
2022-10-10T21:52:34.992Z,3.70
2022-10-10T21:55:04.463Z,3.30
2022-10-10T21:57:32.325Z,3.50
2022-10-10T22:00:00.113Z,3.43
2022-10-10T22:02:27.924Z,3.30
2022-10-10T22:04:55.698Z,3.50
2022-10-10T22:07:23.545Z,3.60
2022-10-10T22:09:51.368Z,3.50
2022-10-10T22:12:20.533Z,3.23
2022-10-10T22:14:48.408Z,3.47
2022-10-10T22:17:16.285Z,3.27
2022-10-10T22:19:44.302Z,3.50
2022-10-10T22:22:12.152Z,3.33
2022-10-10T22:24:40.060Z,3.10
2022-10-10T22:27:07.913Z,3.63
2022-10-10T22:29:37.345Z,3.30
2022-10-10T22:32:05.266Z,3.13
2022-10-10T22:34:33.067Z,2.80
2022-10-10T22:37:00.954Z,3.23
2022-10-10T22:39:28.857Z,2.90
2022-10-10T22:41:56.777Z,3.30
2022-10-10T22:44:24.593Z,3.30
2022-10-10T22:46:53.973Z,3.03
2022-10-10T22:49:21.834Z,3.27
2022-10-10T22:51:49.715Z,3.73
2022-10-10T22:54:17.534Z,2.87
2022-10-10T22:56:46.036Z,2.70
2022-10-10T22:59:13.857Z,2.77
2022-10-10T23:01:41.706Z,2.60
2022-10-10T23:04:13.277Z,3.20
2022-10-10T23:06:41.478Z,2.80
2022-10-10T23:09:09.386Z,2.97
2022-10-10T23:11:37.322Z,2.77
2022-10-10T23:14:05.359Z,2.90
2022-10-10T23:16:33.245Z,2.83
2022-10-10T23:19:01.082Z,3.33
2022-10-10T23:21:30.375Z,3.10
2022-10-10T23:23:58.245Z,3.20
2022-10-10T23:26:26.031Z,2.80
2022-10-10T23:28:54.016Z,2.80
2022-10-10T23:31:21.885Z,3.07
2022-10-10T23:33:49.797Z,2.80
2022-10-10T23:36:17.744Z,3.13
2022-10-10T23:38:47.471Z,3.60
2022-10-10T23:41:16.038Z,2.70
2022-10-10T23:43:44.108Z,2.90
2022-10-10T23:46:12.448Z,3.03
2022-10-10T23:48:40.303Z,3.03
2022-10-10T23:51:08.190Z,2.83
2022-10-10T23:53:36.824Z,2.80
2022-10-10T23:56:06.801Z,3.00
2022-10-10T23:58:35.177Z,2.90
